This is the latest recevied weather packets stored in our database for station/object K7DC. If no packets are shown the sender has not sent any weather packets the latest 10 day(s).
| Time | Temp. | Humidity | Pressure | Rain* | Wind** | Luminosity | Snow |
|---|---|---|---|---|---|---|---|
| 1777490507 | 30.56° C | 11% | 1015.7 hPa | 0 mm | - | 836 W/m² | - |
| 1777490204 | 30° C | 11% | 1016 hPa | 0 mm | - | 697 W/m² | - |
| 1777489901 | 28.33° C | 13% | 1016 hPa | 0 mm | - | 815 W/m² | - |
| 1777489599 | 28.89° C | 14% | 1016.3 hPa | 0 mm | - | 892 W/m² | - |
| 1777489295 | 30° C | 13% | 1016.4 hPa | 0 mm | - | 974 W/m² | - |
| 1777482928 | 24.44° C | 20% | 1017.1 hPa | 0 mm | - | 351 W/m² | - |
| 1777481716 | 25° C | 20% | 1017.1 hPa | 0 mm | - | 313 W/m² | - |
| 1777480199 | 22.22° C | 23% | 1016.8 hPa | 0 mm | - | 594 W/m² | - |
| 1777476560 | 18.89° C | 28% | 1017 hPa | 0 mm | - | 153 W/m² | - |
| 1777475344 | 17.78° C | 29% | 1016.9 hPa | 0 mm | - | 274 W/m² | - |
| 1777473827 | 16.67° C | 31% | 1016.7 hPa | 0 mm | - | 119 W/m² | - |
| 1777473523 | 16.11° C | 31% | 1016.8 hPa | 0 mm | - | 98 W/m² | - |
| 1777473219 | 16.11° C | 31% | 1016.8 hPa | 0 mm | - | 82 W/m² | - |
| 1777472915 | 16.11° C | 32% | 1016.8 hPa | 0 mm | - | 83 W/m² | - |
| 1777472612 | 16.11° C | 31% | 1016.7 hPa | 0 mm | - | 92 W/m² | - |
| 1777472309 | 16.11° C | 31% | 1016.8 hPa | 0 mm | - | 91 W/m² | - |
| 1777472006 | 16.11° C | 30% | 1016.8 hPa | 0 mm | - | 93 W/m² | - |
| 1777471398 | 15.56° C | 31% | 1016.7 hPa | 0 mm | - | 82 W/m² | - |
| 1777471095 | 15.56° C | 33% | 1017.1 hPa | 0 mm | - | 87 W/m² | - |
| 1777469881 | 14.44° C | 33% | 1016.8 hPa | 0 mm | - | 44 W/m² | - |
| 1777469271 | 13.89° C | 32% | 1016.5 hPa | 0 mm | - | 29 W/m² | - |
| 1777468967 | 13.89° C | 31% | 1016.7 hPa | 0 mm | - | 20 W/m² | - |
| 1777468663 | 13.89° C | 30% | 1016.5 hPa | 0 mm | - | 30 W/m² | - |
| 1777468360 | 13.89° C | 30% | 1016.6 hPa | 0 mm | - | 23 W/m² | - |
| 1777468055 | 13.89° C | 30% | 1016.5 hPa | 0 mm | - | 14 W/m² | - |
* Rain latest hour (hover to see other rain measurements)
** Current wind speed in m/s (hover to see current wind gust speed)